createdAt,value
2024-02-26T00:02:08.830Z,33.90
2024-02-26T00:05:21.834Z,33.80
2024-02-26T00:08:32.495Z,33.60
2024-02-26T00:11:43.586Z,33.30
2024-02-26T00:14:55.421Z,33.30
2024-02-26T00:18:08.526Z,33.30
2024-02-26T00:21:22.679Z,33.20
2024-02-26T00:24:34.487Z,33.20
2024-02-26T00:27:45.527Z,33.20
2024-02-26T00:30:59.233Z,33.10
2024-02-26T00:34:13.346Z,33.30
2024-02-26T00:37:24.114Z,33.60
2024-02-26T00:40:35.949Z,33.90
2024-02-26T00:43:49.280Z,34.00
2024-02-26T00:46:59.593Z,34.00
2024-02-26T00:50:14.447Z,33.80
2024-02-26T00:53:28.434Z,33.80
2024-02-26T00:56:39.345Z,33.70
2024-02-26T00:59:54.083Z,33.80
2024-02-26T01:06:04.152Z,33.70
2024-02-26T01:09:21.000Z,33.90
2024-02-26T01:12:34.841Z,33.80
2024-02-26T01:15:47.274Z,33.90
2024-02-26T01:18:58.485Z,33.90
2024-02-26T01:22:10.053Z,33.80
2024-02-26T01:25:22.245Z,34.50
2024-02-26T01:28:38.138Z,33.80
2024-02-26T01:31:49.347Z,33.80
2024-02-26T01:35:00.919Z,33.80
2024-02-26T01:38:12.307Z,33.70
2024-02-26T01:41:19.830Z,33.70
2024-02-26T01:44:35.359Z,33.60
2024-02-26T01:47:50.462Z,33.60
2024-02-26T01:51:04.185Z,33.50
2024-02-26T01:54:14.501Z,33.50
2024-02-26T01:57:23.933Z,33.50
2024-02-26T02:00:40.533Z,33.40
2024-02-26T02:03:52.342Z,33.40
2024-02-26T02:07:03.358Z,33.20
2024-02-26T02:10:19.933Z,33.10
2024-02-26T02:13:32.557Z,33.20
2024-02-26T02:16:42.429Z,33.30
2024-02-26T02:19:52.597Z,33.20
2024-02-26T02:23:05.059Z,33.40
2024-02-26T02:26:13.256Z,33.40
2024-02-26T02:29:22.883Z,33.30
2024-02-26T02:32:34.264Z,33.10
2024-02-26T02:35:50.409Z,33.10
2024-02-26T02:39:03.422Z,33.10
2024-02-26T02:42:16.194Z,33.00
2024-02-26T02:45:27.421Z,33.00
2024-02-26T02:48:41.253Z,32.90
2024-02-26T02:51:52.426Z,32.90
2024-02-26T02:55:06.555Z,32.90
2024-02-26T02:58:19.237Z,32.90
2024-02-26T03:01:30.466Z,32.90
2024-02-26T03:04:44.067Z,33.20
2024-02-26T03:07:53.045Z,33.50
2024-02-26T03:11:05.110Z,33.70
2024-02-26T03:14:16.389Z,33.70
2024-02-26T03:17:26.831Z,33.80
2024-02-26T03:20:37.241Z,33.90
2024-02-26T03:23:50.842Z,33.90
2024-02-26T03:27:03.263Z,33.90
2024-02-26T03:30:15.380Z,34.00
2024-02-26T03:33:26.293Z,34.00
2024-02-26T03:36:37.119Z,33.60
2024-02-26T03:39:46.273Z,33.40
2024-02-26T03:43:01.634Z,33.30
2024-02-26T03:46:15.042Z,33.30
2024-02-26T03:49:26.445Z,33.20
2024-02-26T03:52:38.572Z,33.20
2024-02-26T03:55:48.117Z,33.30
2024-02-26T03:59:03.164Z,33.40
2024-02-26T04:02:15.912Z,33.40
2024-02-26T04:05:25.505Z,33.40
2024-02-26T04:08:37.358Z,33.40
2024-02-26T04:11:51.107Z,33.50
2024-02-26T04:15:02.404Z,33.50
2024-02-26T04:18:13.930Z,33.60
2024-02-26T04:21:26.035Z,33.60
2024-02-26T04:24:39.011Z,33.10
2024-02-26T04:27:49.526Z,33.70
2024-02-26T04:31:01.395Z,33.60
2024-02-26T04:34:14.740Z,33.60
2024-02-26T04:37:29.824Z,33.60
2024-02-26T04:40:39.515Z,33.60
2024-02-26T04:43:49.972Z,33.60
2024-02-26T04:46:58.654Z,33.60
2024-02-26T04:50:13.008Z,33.50
2024-02-26T04:53:23.920Z,33.60
2024-02-26T04:56:36.400Z,33.60
2024-02-26T04:59:49.032Z,33.60
2024-02-26T05:03:03.035Z,33.70
2024-02-26T05:06:13.727Z,33.70
2024-02-26T05:09:23.991Z,33.70
2024-02-26T05:12:37.257Z,33.70
2024-02-26T05:15:46.754Z,34.00
2024-02-26T05:18:58.959Z,33.70
2024-02-26T05:22:09.729Z,33.70
2024-02-26T05:25:21.805Z,33.80
2024-02-26T05:28:32.503Z,33.90
2024-02-26T05:31:47.801Z,34.00
2024-02-26T05:34:56.330Z,34.10
2024-02-26T05:38:07.509Z,34.20
2024-02-26T05:41:15.748Z,34.20
2024-02-26T05:44:26.342Z,34.30
2024-02-26T05:47:39.747Z,34.40
2024-02-26T05:50:51.424Z,34.50
2024-02-26T05:54:05.552Z,34.40
2024-02-26T05:57:18.929Z,34.40
2024-02-26T06:00:31.216Z,34.40
2024-02-26T06:03:43.112Z,34.40
2024-02-26T06:06:54.433Z,34.40
2024-02-26T06:10:04.525Z,34.30
2024-02-26T06:13:16.613Z,34.20
2024-02-26T06:16:33.015Z,34.20
2024-02-26T06:19:46.935Z,34.20
2024-02-26T06:22:59.299Z,34.10
2024-02-26T06:26:14.080Z,34.10
2024-02-26T06:29:24.004Z,34.00
2024-02-26T06:32:35.745Z,34.00
2024-02-26T06:35:45.955Z,34.00
2024-02-26T06:38:59.534Z,34.00
2024-02-26T06:42:13.854Z,33.90
2024-02-26T06:45:24.917Z,33.90
2024-02-26T06:48:35.781Z,33.80
2024-02-26T06:51:48.420Z,33.80
2024-02-26T06:54:58.095Z,33.80
2024-02-26T06:58:11.239Z,33.70
2024-02-26T07:01:21.900Z,33.70
2024-02-26T07:04:37.321Z,33.70
2024-02-26T07:07:50.294Z,33.60
2024-02-26T07:11:03.200Z,33.60
2024-02-26T07:14:14.415Z,33.50
2024-02-26T07:17:29.409Z,33.60
2024-02-26T07:20:39.949Z,33.60
2024-02-26T07:23:55.053Z,33.50
2024-02-26T07:27:07.278Z,33.50
2024-02-26T07:30:21.568Z,33.40
2024-02-26T07:33:32.605Z,33.40
2024-02-26T07:36:46.504Z,33.50
2024-02-26T07:40:00.219Z,33.30
2024-02-26T07:43:12.733Z,33.30
2024-02-26T07:46:23.686Z,33.30
2024-02-26T07:49:36.780Z,33.40
2024-02-26T07:52:44.373Z,33.30
2024-02-26T07:55:56.396Z,33.30
2024-02-26T07:59:09.092Z,33.30
2024-02-26T08:02:22.766Z,33.30
2024-02-26T08:05:36.780Z,33.30
2024-02-26T08:08:47.714Z,33.20
2024-02-26T08:11:59.497Z,33.50
2024-02-26T08:15:14.231Z,33.90
2024-02-26T08:18:25.117Z,34.20
2024-02-26T08:21:35.097Z,34.20
2024-02-26T08:24:45.607Z,34.20
2024-02-26T08:27:57.738Z,34.30
2024-02-26T08:31:10.414Z,34.40
2024-02-26T08:34:25.289Z,34.40
2024-02-26T08:37:36.537Z,34.40
2024-02-26T08:40:49.783Z,34.00
2024-02-26T08:43:59.812Z,33.80
2024-02-26T08:47:13.044Z,33.70
2024-02-26T08:50:23.996Z,33.70
2024-02-26T08:53:41.884Z,33.70
2024-02-26T08:56:50.239Z,33.80
2024-02-26T09:00:01.627Z,33.80
2024-02-26T09:03:14.367Z,33.90
2024-02-26T09:06:28.086Z,33.90
2024-02-26T09:09:38.026Z,33.90
2024-02-26T09:12:49.035Z,33.90
2024-02-26T09:16:01.755Z,33.90
2024-02-26T09:19:16.086Z,33.80
2024-02-26T09:22:27.347Z,33.80
2024-02-26T09:25:41.355Z,33.80
2024-02-26T09:28:53.361Z,33.80
2024-02-26T09:32:04.654Z,33.80
2024-02-26T09:35:16.903Z,33.70
2024-02-26T09:38:41.989Z,33.70
2024-02-26T09:41:49.444Z,33.70
2024-02-26T09:45:05.218Z,33.70
2024-02-26T09:48:19.313Z,33.60
2024-02-26T09:51:32.438Z,33.70
2024-02-26T09:54:45.693Z,33.70
2024-02-26T09:57:58.579Z,33.70
2024-02-26T10:01:12.865Z,34.00
2024-02-26T10:04:23.232Z,34.30
2024-02-26T10:07:32.993Z,34.70
2024-02-26T10:10:47.926Z,34.50
2024-02-26T10:13:59.447Z,34.70
2024-02-26T10:17:12.941Z,34.70
2024-02-26T10:20:25.588Z,34.80
2024-02-26T10:23:38.051Z,34.90
2024-02-26T10:26:53.678Z,34.80
2024-02-26T10:30:05.890Z,34.40
2024-02-26T10:33:18.241Z,34.10
2024-02-26T10:36:40.867Z,34.00
2024-02-26T10:39:41.202Z,34.10
2024-02-26T10:42:51.212Z,34.10
2024-02-26T10:46:03.069Z,34.10
2024-02-26T10:49:23.510Z,34.10
2024-02-26T10:52:38.162Z,34.10
2024-02-26T10:55:50.216Z,34.20
2024-02-26T10:59:03.763Z,34.10
2024-02-26T11:02:17.594Z,34.10
2024-02-26T11:05:29.193Z,34.10
2024-02-26T11:08:41.575Z,34.20
2024-02-26T11:11:51.929Z,34.10
2024-02-26T11:15:05.202Z,34.00
2024-02-26T11:18:14.097Z,34.10
2024-02-26T11:21:27.692Z,34.00
2024-02-26T11:24:43.130Z,33.90
2024-02-26T11:28:00.551Z,33.90
2024-02-26T11:31:12.802Z,33.90
2024-02-26T11:34:21.424Z,33.90
2024-02-26T11:37:33.181Z,33.90
2024-02-26T11:40:49.226Z,33.90
2024-02-26T11:44:04.279Z,33.90
2024-02-26T11:47:23.657Z,33.90
2024-02-26T11:50:43.870Z,33.90
2024-02-26T11:53:54.715Z,34.20
2024-02-26T11:57:05.846Z,34.60
2024-02-26T12:03:36.374Z,35.00
2024-02-26T12:06:59.084Z,35.10
2024-02-26T12:10:28.067Z,35.70
2024-02-26T12:13:43.277Z,35.20
2024-02-26T12:16:56.150Z,35.20
2024-02-26T12:20:19.097Z,35.10
2024-02-26T12:23:32.696Z,35.20
2024-02-26T12:26:46.902Z,35.40
2024-02-26T12:29:58.891Z,35.60
2024-02-26T12:33:10.204Z,35.70
2024-02-26T12:36:22.943Z,35.80
2024-02-26T12:39:35.945Z,36.00
2024-02-26T12:42:47.435Z,36.10
2024-02-26T12:45:58.200Z,36.20
2024-02-26T12:49:10.302Z,36.30
2024-02-26T12:52:19.563Z,36.20
2024-02-26T12:55:31.750Z,36.10
2024-02-26T12:58:43.219Z,35.60
2024-02-26T13:01:55.862Z,35.30
2024-02-26T13:05:08.006Z,35.70
2024-02-26T13:08:21.485Z,35.60
2024-02-26T13:11:33.901Z,35.50
2024-02-26T13:14:43.030Z,35.40
2024-02-26T13:17:53.838Z,35.30
2024-02-26T13:21:14.702Z,35.30
2024-02-26T13:24:26.926Z,35.40
2024-02-26T13:27:39.461Z,35.30
2024-02-26T13:30:59.520Z,35.30
2024-02-26T13:34:09.841Z,35.30
2024-02-26T13:37:22.418Z,35.30
2024-02-26T13:40:35.353Z,35.20
2024-02-26T13:43:46.347Z,35.10
2024-02-26T13:46:56.265Z,35.00
2024-02-26T13:50:08.430Z,34.90
2024-02-26T13:53:18.758Z,34.70
2024-02-26T13:56:29.827Z,34.70
2024-02-26T13:59:44.493Z,34.50
2024-02-26T14:02:57.447Z,35.00
2024-02-26T14:06:10.043Z,34.40
2024-02-26T14:09:21.249Z,34.20
2024-02-26T14:12:33.129Z,34.20
2024-02-26T14:15:43.066Z,34.20
2024-02-26T14:18:55.729Z,34.10
2024-02-26T14:22:08.765Z,34.10
2024-02-26T14:25:23.564Z,34.00
2024-02-26T14:28:36.666Z,33.90
2024-02-26T14:31:50.068Z,33.80
2024-02-26T14:35:01.444Z,33.70
2024-02-26T14:38:14.549Z,33.60
2024-02-26T14:41:27.025Z,33.60
2024-02-26T14:44:40.838Z,33.60
2024-02-26T14:47:53.315Z,33.50
2024-02-26T14:51:09.328Z,33.50
2024-02-26T14:54:19.085Z,33.40
2024-02-26T14:57:30.486Z,33.30
2024-02-26T15:00:42.580Z,33.30
2024-02-26T15:03:55.143Z,33.20
2024-02-26T15:07:12.303Z,33.10
2024-02-26T15:10:23.449Z,33.00
2024-02-26T15:13:39.368Z,33.10
2024-02-26T15:16:52.940Z,33.10
2024-02-26T15:20:08.486Z,33.10
2024-02-26T15:23:19.292Z,33.70
2024-02-26T15:26:31.716Z,33.00
2024-02-26T15:29:46.278Z,33.50
2024-02-26T15:32:55.783Z,32.90
2024-02-26T15:36:06.291Z,32.80
2024-02-26T15:39:20.414Z,32.70
2024-02-26T15:42:30.389Z,32.70
2024-02-26T15:45:44.629Z,32.60
2024-02-26T15:48:57.310Z,32.60
2024-02-26T15:52:08.684Z,32.50
2024-02-26T15:55:22.531Z,32.40
2024-02-26T15:58:36.303Z,32.50
2024-02-26T16:01:52.936Z,32.50
2024-02-26T16:05:04.570Z,32.30
2024-02-26T16:08:14.966Z,32.20
2024-02-26T16:11:26.138Z,32.10
2024-02-26T16:14:38.411Z,32.10
2024-02-26T16:17:49.602Z,32.10
2024-02-26T16:21:00.432Z,32.10
2024-02-26T16:24:15.385Z,31.90
2024-02-26T16:27:26.948Z,31.90
2024-02-26T16:30:38.156Z,31.90
2024-02-26T16:33:49.979Z,31.80
2024-02-26T16:37:06.395Z,31.80
2024-02-26T16:40:22.023Z,31.70
2024-02-26T16:43:34.756Z,31.70
2024-02-26T16:46:47.729Z,31.60
2024-02-26T16:49:59.825Z,31.60
2024-02-26T16:53:14.083Z,31.50
2024-02-26T16:56:24.505Z,31.50
2024-02-26T16:59:37.204Z,31.40
2024-02-26T17:02:51.014Z,31.40
2024-02-26T17:06:04.400Z,31.40
2024-02-26T17:09:16.597Z,31.30
2024-02-26T17:12:27.446Z,31.30
2024-02-26T17:15:39.870Z,31.20
2024-02-26T17:18:54.067Z,31.20
2024-02-26T17:22:06.545Z,31.20
2024-02-26T17:25:20.841Z,31.20
2024-02-26T17:28:32.320Z,31.20
2024-02-26T17:31:44.474Z,31.30
2024-02-26T17:34:57.122Z,31.30
2024-02-26T17:38:06.520Z,31.20
2024-02-26T17:41:18.981Z,31.30
2024-02-26T17:44:29.877Z,31.30
2024-02-26T17:47:40.494Z,31.20
2024-02-26T17:50:52.113Z,31.20
2024-02-26T17:54:04.832Z,31.20
2024-02-26T17:57:17.669Z,31.20
2024-02-26T18:00:27.168Z,31.20
2024-02-26T18:03:37.476Z,31.20
2024-02-26T18:06:48.771Z,31.10
2024-02-26T18:09:58.373Z,31.20
2024-02-26T18:13:10.959Z,31.00
2024-02-26T18:16:24.695Z,31.10
2024-02-26T18:19:36.965Z,31.10
2024-02-26T18:22:46.307Z,31.20
2024-02-26T18:25:59.511Z,31.20
2024-02-26T18:29:11.364Z,31.20
2024-02-26T18:32:23.113Z,31.20
2024-02-26T18:35:38.761Z,31.20
2024-02-26T18:38:51.624Z,31.10
2024-02-26T18:42:00.262Z,31.30
2024-02-26T18:45:15.271Z,31.20
2024-02-26T18:48:26.917Z,31.20
2024-02-26T18:51:39.685Z,31.20
2024-02-26T18:54:51.297Z,31.20
2024-02-26T18:58:07.031Z,31.10
2024-02-26T19:01:21.297Z,31.20
2024-02-26T19:04:34.508Z,31.10
2024-02-26T19:07:46.793Z,31.30
2024-02-26T19:10:57.939Z,31.10
2024-02-26T19:14:09.577Z,31.10
2024-02-26T19:17:19.202Z,31.20
2024-02-26T19:20:31.094Z,31.30
2024-02-26T19:23:42.016Z,31.30
2024-02-26T19:26:54.008Z,31.40
2024-02-26T19:30:06.219Z,31.30
2024-02-26T19:33:19.988Z,31.30
2024-02-26T19:36:32.385Z,31.20
2024-02-26T19:39:42.612Z,31.20
2024-02-26T19:42:55.157Z,31.30
2024-02-26T19:46:07.822Z,31.20
2024-02-26T19:49:20.945Z,31.30
2024-02-26T19:52:30.167Z,31.30
2024-02-26T19:55:41.556Z,31.30
2024-02-26T19:58:53.213Z,31.30
2024-02-26T20:02:07.050Z,31.30
2024-02-26T20:05:20.509Z,31.30
2024-02-26T20:08:31.541Z,31.40
2024-02-26T20:11:44.310Z,31.40
2024-02-26T20:14:55.783Z,31.50
2024-02-26T20:18:08.204Z,31.50
2024-02-26T20:21:16.454Z,31.60
2024-02-26T20:24:27.471Z,31.50
2024-02-26T20:27:37.801Z,31.50
2024-02-26T20:30:50.472Z,31.50
2024-02-26T20:34:01.677Z,31.40
2024-02-26T20:37:16.749Z,31.40
2024-02-26T20:40:28.454Z,31.40
2024-02-26T20:43:37.975Z,31.40
2024-02-26T20:46:47.991Z,31.50
2024-02-26T20:50:01.822Z,31.50
2024-02-26T20:53:14.147Z,31.40
2024-02-26T20:56:28.034Z,31.40
2024-02-26T20:59:46.184Z,31.40
2024-02-26T21:02:57.855Z,31.40
2024-02-26T21:06:11.509Z,31.40
2024-02-26T21:09:20.158Z,31.50
2024-02-26T21:12:31.242Z,31.50
2024-02-26T21:15:43.294Z,31.50
2024-02-26T21:18:52.830Z,31.60
2024-02-26T21:22:06.632Z,31.70
2024-02-26T21:28:42.294Z,31.20
2024-02-26T21:31:54.793Z,31.70
2024-02-26T21:35:05.233Z,31.60
2024-02-26T21:38:22.854Z,31.50
2024-02-26T21:41:31.338Z,31.60
2024-02-26T21:44:43.011Z,31.60
2024-02-26T21:47:53.412Z,31.70
2024-02-26T21:51:06.285Z,31.80
2024-02-26T21:54:17.483Z,31.70
2024-02-26T21:57:27.490Z,32.20
2024-02-26T22:00:39.232Z,31.90
2024-02-26T22:03:49.237Z,31.80
2024-02-26T22:07:04.528Z,32.00
2024-02-26T22:10:17.020Z,32.10
2024-02-26T22:13:31.289Z,31.80
2024-02-26T22:16:43.371Z,31.90
2024-02-26T22:19:54.096Z,31.90
2024-02-26T22:23:08.459Z,32.00
2024-02-26T22:26:22.743Z,32.10
2024-02-26T22:29:34.620Z,32.20
2024-02-26T22:32:45.493Z,32.30
2024-02-26T22:35:57.154Z,32.50
2024-02-26T22:39:09.828Z,32.40
2024-02-26T22:42:21.478Z,32.40
2024-02-26T22:45:31.278Z,31.90
2024-02-26T22:48:44.380Z,31.20
2024-02-26T22:51:54.700Z,31.30
2024-02-26T22:55:08.494Z,31.30
2024-02-26T22:58:21.572Z,31.50
2024-02-26T23:01:33.120Z,31.90
2024-02-26T23:04:43.625Z,32.70
2024-02-26T23:07:55.641Z,33.80
2024-02-26T23:11:05.141Z,34.10
2024-02-26T23:14:20.816Z,34.40
2024-02-26T23:17:33.339Z,34.60
2024-02-26T23:20:45.422Z,34.50
2024-02-26T23:24:01.291Z,35.00
2024-02-26T23:27:13.690Z,35.10
2024-02-26T23:30:26.975Z,35.50
2024-02-26T23:33:38.907Z,35.50
2024-02-26T23:36:52.876Z,35.70
2024-02-26T23:40:06.123Z,36.10
2024-02-26T23:43:19.424Z,35.80
2024-02-26T23:46:29.401Z,35.50
2024-02-26T23:49:43.715Z,35.90
2024-02-26T23:52:54.519Z,35.80
2024-02-26T23:56:06.155Z,35.80
2024-02-26T23:59:19.560Z,35.70
